createdAt,value
2023-05-14T00:03:05.929Z,11.65
2023-05-14T00:08:09.975Z,5.00
2023-05-14T00:13:14.080Z,7.05
2023-05-14T00:18:15.923Z,7.30
2023-05-14T00:23:17.682Z,9.98
2023-05-14T00:28:19.361Z,6.60
2023-05-14T00:33:23.705Z,9.25
2023-05-14T00:38:27.714Z,6.82
2023-05-14T00:43:33.953Z,6.72
2023-05-14T00:48:35.881Z,9.27
2023-05-14T00:53:37.707Z,9.38
2023-05-14T00:58:41.765Z,7.10
2023-05-14T01:03:43.681Z,9.82
2023-05-14T01:09:23.331Z,7.63
2023-05-14T01:14:41.968Z,7.10
2023-05-14T01:19:47.564Z,6.60
2023-05-14T01:24:53.801Z,7.45
2023-05-14T01:30:22.706Z,5.78
2023-05-14T01:35:28.068Z,5.53
2023-05-14T01:40:32.926Z,8.43
2023-05-14T01:45:36.191Z,7.43
2023-05-14T01:50:40.494Z,8.43
2023-05-14T01:55:44.501Z,6.68
2023-05-14T02:00:50.581Z,7.22
2023-05-14T02:05:56.800Z,9.18
2023-05-14T02:11:00.860Z,9.13
2023-05-14T02:16:08.928Z,9.20
2023-05-14T02:21:12.854Z,10.93
2023-05-14T02:26:16.682Z,8.20
2023-05-14T02:31:19.527Z,10.95
2023-05-14T02:36:21.437Z,6.85
2023-05-14T02:41:27.839Z,9.30
2023-05-14T02:46:31.271Z,9.23
2023-05-14T02:51:35.311Z,10.82
2023-05-14T02:56:37.154Z,9.93
2023-05-14T03:01:38.919Z,8.90
2023-05-14T03:06:41.321Z,11.55
2023-05-14T03:11:43.028Z,14.65
2023-05-14T03:16:47.271Z,13.02
2023-05-14T03:21:51.524Z,13.85
2023-05-14T03:26:55.678Z,12.85
2023-05-14T03:31:59.672Z,13.63
2023-05-14T03:37:01.663Z,9.00
2023-05-14T03:42:03.649Z,8.65
2023-05-14T03:47:09.746Z,9.77
2023-05-14T03:52:14.050Z,12.43
2023-05-14T03:57:18.639Z,11.88
2023-05-14T04:02:20.504Z,9.70
2023-05-14T04:07:24.965Z,9.93
2023-05-14T04:12:28.234Z,11.02
2023-05-14T04:17:33.923Z,10.18
2023-05-14T04:22:39.086Z,12.27
2023-05-14T04:27:43.134Z,10.25
2023-05-14T04:32:47.676Z,9.55
2023-05-14T04:37:52.148Z,12.25
2023-05-14T04:42:53.828Z,13.77
2023-05-14T04:47:55.906Z,12.23
2023-05-14T04:53:03.179Z,10.30
2023-05-14T04:58:05.262Z,14.68
2023-05-14T05:03:09.304Z,12.02
2023-05-14T05:08:11.526Z,10.32
2023-05-14T05:13:17.067Z,10.25
2023-05-14T05:18:19.141Z,9.43
2023-05-14T05:23:23.027Z,10.50
2023-05-14T05:28:24.777Z,11.90
2023-05-14T05:33:28.682Z,13.25
2023-05-14T05:38:35.335Z,9.38
2023-05-14T05:43:39.554Z,10.02
2023-05-14T05:48:43.603Z,8.48
2023-05-14T05:53:47.557Z,8.20
2023-05-14T05:58:49.449Z,8.82
2023-05-14T06:03:51.206Z,13.20
2023-05-14T06:08:52.931Z,14.13
2023-05-14T06:13:59.034Z,9.88
2023-05-14T06:19:06.397Z,10.45
2023-05-14T06:24:10.714Z,12.02
2023-05-14T06:29:12.678Z,6.85
2023-05-14T06:34:16.598Z,9.70
2023-05-14T06:39:18.314Z,12.07
2023-05-14T06:44:22.734Z,7.70
2023-05-14T06:49:24.804Z,9.50
2023-05-14T06:54:28.850Z,9.60
2023-05-14T06:59:33.330Z,7.97
2023-05-14T07:04:35.175Z,7.20
2023-05-14T07:09:36.960Z,10.43
2023-05-14T07:14:38.737Z,9.68
2023-05-14T07:19:44.077Z,7.38
2023-05-14T07:24:48.026Z,10.20
2023-05-14T07:29:52.439Z,8.45
2023-05-14T07:34:59.422Z,10.02
2023-05-14T07:40:03.341Z,10.02
2023-05-14T07:45:05.717Z,8.00
2023-05-14T07:50:10.769Z,8.50
2023-05-14T07:55:12.908Z,10.00
2023-05-14T08:00:18.071Z,9.43
2023-05-14T08:05:20.003Z,11.88
2023-05-14T08:10:21.859Z,8.30
2023-05-14T08:15:25.171Z,7.90
2023-05-14T08:20:31.936Z,10.15
2023-05-14T08:25:41.081Z,7.60
2023-05-14T08:30:42.890Z,7.57
2023-05-14T08:35:44.593Z,9.80
2023-05-14T08:40:56.719Z,7.13
2023-05-14T08:46:01.207Z,12.32
2023-05-14T08:51:03.124Z,6.18
2023-05-14T08:56:05.519Z,6.15
2023-05-14T09:01:09.725Z,6.68
2023-05-14T09:06:11.483Z,8.93
2023-05-14T09:11:15.610Z,8.63
2023-05-14T09:16:20.936Z,6.15
2023-05-14T09:21:23.146Z,8.60
2023-05-14T09:26:30.742Z,4.55
2023-05-14T09:31:33.600Z,7.70
2023-05-14T09:36:35.517Z,6.43
2023-05-14T09:41:39.635Z,5.65
2023-05-14T09:46:41.421Z,5.25
2023-05-14T09:51:46.898Z,5.57
2023-05-14T09:56:48.637Z,5.78
2023-05-14T10:01:51.389Z,9.73
2023-05-14T10:07:00.896Z,4.32
2023-05-14T10:12:02.659Z,5.70
2023-05-14T10:17:17.966Z,3.90
2023-05-14T10:22:27.546Z,6.05
2023-05-14T10:27:32.155Z,4.15
2023-05-14T10:32:34.183Z,4.18
2023-05-14T10:37:38.105Z,5.15
2023-05-14T10:42:46.367Z,9.90
2023-05-14T10:47:48.979Z,3.78
2023-05-14T10:52:55.564Z,4.20
2023-05-14T10:58:01.399Z,5.40
2023-05-14T11:03:07.159Z,5.47
2023-05-14T11:08:09.158Z,4.75
2023-05-14T11:13:11.856Z,5.32
2023-05-14T11:18:27.856Z,8.85
2023-05-14T11:23:29.811Z,3.10
2023-05-14T11:28:31.692Z,4.55
2023-05-14T11:33:33.432Z,3.85
2023-05-14T11:38:35.155Z,4.60
2023-05-14T11:43:36.882Z,4.93
2023-05-14T11:48:38.608Z,7.30
2023-05-14T11:53:42.668Z,4.80
2023-05-14T11:58:56.277Z,5.35
2023-05-14T12:04:00.614Z,4.88
2023-05-14T12:09:09.913Z,6.63
2023-05-14T12:14:15.821Z,5.60
2023-05-14T12:19:21.286Z,4.65
2023-05-14T12:24:27.998Z,4.18
2023-05-14T12:29:29.654Z,4.07
2023-05-14T12:34:34.852Z,4.53
2023-05-14T12:39:38.366Z,3.70
2023-05-14T12:44:40.198Z,4.38
2023-05-14T12:49:41.888Z,3.05
2023-05-14T12:54:45.914Z,3.22
2023-05-14T12:59:50.799Z,3.17
2023-05-14T13:04:54.631Z,3.45
2023-05-14T13:09:58.722Z,4.57
2023-05-14T13:15:02.976Z,3.15
2023-05-14T13:20:08.742Z,3.85
2023-05-14T13:25:10.742Z,4.70
2023-05-14T13:30:17.350Z,3.30
2023-05-14T13:35:21.599Z,3.75
2023-05-14T13:40:23.387Z,2.92
2023-05-14T13:45:25.348Z,4.72
2023-05-14T13:50:27.217Z,4.30
2023-05-14T13:55:29.159Z,4.85
2023-05-14T14:00:32.961Z,6.13
2023-05-14T14:05:40.073Z,6.03
2023-05-14T14:10:42.489Z,9.63
2023-05-14T14:15:47.249Z,7.20
2023-05-14T14:20:49.107Z,4.97
2023-05-14T14:25:53.249Z,5.85
2023-05-14T14:30:54.989Z,4.18
2023-05-14T14:35:59.082Z,6.10
2023-05-14T14:41:03.212Z,6.55
2023-05-14T14:46:09.244Z,3.80
2023-05-14T14:51:13.566Z,3.67
2023-05-14T14:56:18.509Z,2.83
2023-05-14T15:01:25.069Z,4.57
2023-05-14T15:06:29.232Z,4.97
2023-05-14T15:11:30.976Z,3.35
2023-05-14T15:16:34.952Z,3.17
2023-05-14T15:21:36.935Z,4.30
2023-05-14T15:26:38.848Z,3.03
2023-05-14T15:31:44.971Z,3.45
2023-05-14T15:36:46.762Z,8.27
2023-05-14T15:41:55.502Z,6.95
2023-05-14T15:46:57.471Z,3.30
2023-05-14T15:52:02.899Z,6.93
2023-05-14T15:57:07.105Z,2.97
2023-05-14T16:02:11.221Z,6.57
2023-05-14T16:07:13.449Z,6.93
2023-05-14T16:12:17.657Z,4.70
2023-05-14T16:17:21.626Z,4.82
2023-05-14T16:22:29.164Z,4.45
2023-05-14T16:27:33.702Z,4.25
2023-05-14T16:32:35.650Z,6.43
2023-05-14T16:37:37.393Z,3.50
2023-05-14T16:42:39.166Z,6.90
2023-05-14T16:47:41.442Z,5.07
2023-05-14T16:52:47.972Z,4.43
2023-05-14T16:57:52.275Z,6.78
2023-05-14T17:02:56.566Z,5.45
2023-05-14T17:07:58.313Z,6.40
2023-05-14T17:13:00.879Z,4.57
2023-05-14T17:18:06.319Z,5.03
2023-05-14T17:23:13.544Z,11.48
2023-05-14T17:28:15.484Z,11.52
2023-05-14T17:33:19.764Z,5.63
2023-05-14T17:38:21.467Z,5.15
2023-05-14T17:43:23.174Z,7.95
2023-05-14T17:48:27.738Z,4.55
2023-05-14T17:53:29.506Z,5.32
2023-05-14T17:58:31.238Z,8.25
2023-05-14T18:03:38.493Z,6.65
2023-05-14T18:08:41.028Z,5.05
2023-05-14T18:13:45.292Z,7.80
2023-05-14T18:18:47.171Z,4.60
2023-05-14T18:23:51.796Z,6.28
2023-05-14T18:28:53.515Z,7.32
2023-05-14T18:33:59.990Z,7.40
2023-05-14T18:39:05.286Z,6.65
2023-05-14T18:44:11.744Z,7.32
2023-05-14T18:49:19.529Z,8.05
2023-05-14T18:54:26.312Z,6.85
2023-05-14T18:59:31.422Z,9.52
2023-05-14T19:04:33.549Z,6.07
2023-05-14T19:09:38.785Z,8.73
2023-05-14T19:14:48.371Z,8.23
2023-05-14T19:19:56.833Z,5.80
2023-05-14T19:25:05.093Z,7.75
2023-05-14T19:30:08.272Z,6.28
2023-05-14T19:35:14.737Z,6.13
2023-05-14T19:40:19.140Z,4.85
2023-05-14T19:45:20.879Z,7.63
2023-05-14T19:50:25.035Z,5.40
2023-05-14T19:55:28.942Z,8.82
2023-05-14T20:00:30.863Z,5.88
2023-05-14T20:05:34.315Z,6.78
2023-05-14T20:10:36.027Z,6.55
2023-05-14T20:15:40.798Z,7.18
2023-05-14T20:20:44.794Z,5.35
2023-05-14T20:25:47.657Z,5.15
2023-05-14T20:30:52.283Z,5.30
2023-05-14T20:35:56.718Z,7.07
2023-05-14T20:40:58.561Z,6.18
2023-05-14T20:46:00.757Z,13.07
2023-05-14T20:51:04.900Z,6.68
2023-05-14T20:56:06.861Z,10.15
2023-05-14T21:01:09.605Z,8.68
2023-05-14T21:06:13.545Z,8.63
2023-05-14T21:11:15.278Z,4.47
2023-05-14T21:16:20.233Z,5.18
2023-05-14T21:21:22.005Z,5.35
2023-05-14T21:26:26.450Z,7.22
2023-05-14T21:31:30.938Z,8.02
2023-05-14T21:36:39.557Z,5.90
2023-05-14T21:41:41.431Z,6.32
2023-05-14T21:46:43.189Z,7.30
2023-05-14T21:51:52.904Z,6.85
2023-05-14T21:56:56.918Z,8.38
2023-05-14T22:07:08.984Z,10.77
2023-05-14T22:12:12.958Z,8.27
2023-05-14T22:17:14.696Z,9.88
2023-05-14T22:22:16.361Z,7.00
2023-05-14T22:27:18.404Z,7.88
2023-05-14T22:32:24.561Z,6.95
2023-05-14T22:37:29.228Z,12.65
2023-05-14T22:42:33.345Z,9.70
2023-05-14T22:47:35.109Z,8.48
2023-05-14T22:52:39.012Z,11.65
2023-05-14T22:57:42.911Z,10.27
2023-05-14T23:02:44.605Z,13.18
2023-05-14T23:07:46.287Z,14.70
2023-05-14T23:12:50.341Z,14.88
2023-05-14T23:17:52.193Z,12.70
2023-05-14T23:22:56.372Z,15.32
2023-05-14T23:28:00.362Z,24.25
2023-05-14T23:33:02.191Z,23.35
2023-05-14T23:38:04.965Z,25.58
2023-05-14T23:43:06.919Z,24.50
2023-05-14T23:48:08.695Z,27.70
2023-05-14T23:53:12.829Z,30.02
2023-05-14T23:58:16.983Z,31.80
